バマコ の空港の天気 - METARとTAF

バマコ・セヌー国際空港 ( GABS / BKO ) - マリ バマコ
飛行場実況気象(Metar)
観測時間10/20 16:00 GMT (10/20 16:00 UTC)
風向・風速東 4m/s
視程10km以上
天気現象
少しの雲 雲底高度 700m
少しの雲 雲底高度 910m
気温36℃
湿度35%
気圧1010hPa
METARGABS 201600Z 08007KT 050V110 9999 FEW023 FEW030CB 36/18 Q1010 NOSIG
過去の天気等 Google飛行場航空写真 Wunderground天気予報

過去48時間のMETAR

飛行場予報(TAF)
発表時間: 10/20 11:20 GMT (10/20 11:20 UTC)
予報対象時間: 20日12時 GMT ~ 21日18時 GMT
風向・風速南 4m/s
視程10km以上
少しの雲 雲底高度 610m
20日15時 GMT ~ 20日21時 GMT に 確率 40% で一時的に
風向・風速不定 10m/s 瞬間風速 23m/s
視程3000m
天気現象スコール 高い風塵 雷雨
全天の4割程度の雲 雲底高度 610m
少しの積乱雲 雲底高度 910m
TAF GABS 201120Z 2012/2118 18008KT 9999 FEW020
PROB40 TEMPO 2015/2021 VRB20G45KT 3000 SQ BLDU TSRA SCT020 FEW030CB